createdAt,value
2019-03-28T00:01:42.617Z,21.80
2019-03-28T00:04:14.886Z,23.07
2019-03-28T00:06:47.111Z,21.87
2019-03-28T00:09:19.648Z,22.03
2019-03-28T00:11:52.233Z,22.70
2019-03-28T00:14:24.531Z,24.30
2019-03-28T00:16:56.870Z,22.07
2019-03-28T00:19:29.130Z,22.57
2019-03-28T00:22:01.369Z,22.57
2019-03-28T00:24:46.292Z,23.90
2019-03-28T00:27:18.557Z,21.47
2019-03-28T00:29:50.965Z,23.27
2019-03-28T00:32:23.208Z,23.97
2019-03-28T00:34:55.588Z,23.37
2019-03-28T00:37:27.917Z,22.80
2019-03-28T00:40:00.391Z,22.90
2019-03-28T00:42:32.668Z,23.30
2019-03-28T00:45:06.231Z,22.20
2019-03-28T00:47:38.652Z,21.57
2019-03-28T00:50:11.427Z,21.73
2019-03-28T00:52:43.689Z,23.20
2019-03-28T00:55:15.940Z,21.60
2019-03-28T00:57:48.183Z,20.37
2019-03-28T01:00:20.745Z,21.13
2019-03-28T01:02:53.004Z,21.60
2019-03-28T01:05:25.371Z,18.50
2019-03-28T01:07:57.632Z,19.37
2019-03-28T01:10:29.893Z,18.80
2019-03-28T01:13:02.151Z,20.03
2019-03-28T01:15:34.495Z,18.13
2019-03-28T01:18:06.739Z,17.43
2019-03-28T01:20:39.013Z,18.90
2019-03-28T01:23:11.356Z,19.80
2019-03-28T01:25:43.613Z,20.60
2019-03-28T01:28:16.219Z,17.87
2019-03-28T01:30:48.601Z,17.73
2019-03-28T01:33:20.852Z,18.40
2019-03-28T01:35:53.104Z,20.80
2019-03-28T01:38:25.361Z,19.73
2019-03-28T01:40:57.669Z,18.17
2019-03-28T01:43:30.035Z,19.97
2019-03-28T01:46:02.292Z,19.87
2019-03-28T01:48:34.543Z,20.93
2019-03-28T01:51:06.928Z,21.53
2019-03-28T01:53:39.270Z,21.43
2019-03-28T01:56:11.532Z,20.77
2019-03-28T01:58:43.767Z,21.17
2019-03-28T02:01:16.060Z,22.70
2019-03-28T02:03:48.307Z,20.63
2019-03-28T02:06:20.783Z,20.97
2019-03-28T02:08:53.035Z,22.00
2019-03-28T02:11:25.324Z,22.10
2019-03-28T02:13:57.667Z,20.57
2019-03-28T02:16:30.021Z,20.77
2019-03-28T02:19:02.268Z,20.63
2019-03-28T02:21:35.134Z,20.93
2019-03-28T02:24:07.574Z,20.73
2019-03-28T02:26:39.825Z,18.93
2019-03-28T02:29:12.069Z,20.43
2019-03-28T02:31:44.340Z,20.97
2019-03-28T02:34:16.678Z,21.73
2019-03-28T02:36:49.048Z,19.97
2019-03-28T02:39:21.297Z,19.77
2019-03-28T02:41:53.662Z,20.70
2019-03-28T02:44:26.007Z,18.63
2019-03-28T02:46:58.271Z,19.23
2019-03-28T02:49:30.648Z,19.83
2019-03-28T02:52:02.965Z,17.23
2019-03-28T02:54:35.230Z,17.40
2019-03-28T02:57:07.878Z,18.20
2019-03-28T02:59:40.555Z,17.63
2019-03-28T03:02:12.928Z,18.03
2019-03-28T03:04:45.257Z,17.50
2019-03-28T03:07:17.640Z,17.57
2019-03-28T03:09:50.099Z,17.40
2019-03-28T03:12:22.457Z,16.17
2019-03-28T03:14:54.720Z,16.90
2019-03-28T03:17:27.124Z,17.30
2019-03-28T03:19:59.373Z,16.50
2019-03-28T03:22:31.642Z,16.97
2019-03-28T03:25:04.320Z,17.10
2019-03-28T03:27:36.700Z,17.60
2019-03-28T03:30:09.832Z,17.10
2019-03-28T03:32:42.272Z,16.97
2019-03-28T03:35:14.763Z,17.50
2019-03-28T03:37:47.033Z,15.53
2019-03-28T03:40:19.285Z,16.03
2019-03-28T03:42:51.633Z,16.97
2019-03-28T03:45:23.999Z,16.73
2019-03-28T03:47:56.245Z,16.53
2019-03-28T03:50:29.305Z,17.53
2019-03-28T03:53:01.570Z,15.53
2019-03-28T03:55:34.046Z,16.20
2019-03-28T03:58:15.493Z,14.90
2019-03-28T04:00:40.631Z,16.10
2019-03-28T04:03:12.881Z,15.70
2019-03-28T04:05:45.224Z,15.27
2019-03-28T04:08:17.485Z,15.93
2019-03-28T04:10:49.724Z,14.10
2019-03-28T04:13:22.008Z,14.63
2019-03-28T04:15:54.360Z,16.23
2019-03-28T04:18:26.644Z,13.73
2019-03-28T04:20:58.978Z,14.43
2019-03-28T04:23:31.334Z,14.90
2019-03-28T04:26:03.583Z,14.00
2019-03-28T04:28:35.866Z,13.27
2019-03-28T04:31:08.125Z,13.60
2019-03-28T04:33:40.412Z,13.83
2019-03-28T04:36:12.694Z,13.07
2019-03-28T04:38:45.061Z,13.57
2019-03-28T04:41:17.416Z,12.80
2019-03-28T04:43:49.681Z,13.33
2019-03-28T04:46:21.924Z,13.87
2019-03-28T04:48:54.307Z,12.97
2019-03-28T04:51:27.438Z,12.30
2019-03-28T04:53:59.858Z,13.17
2019-03-28T04:56:32.111Z,12.77
2019-03-28T04:59:04.480Z,13.80
2019-03-28T05:01:36.940Z,13.13
2019-03-28T05:04:09.305Z,13.00
2019-03-28T05:06:41.651Z,13.10
2019-03-28T05:09:13.911Z,12.47
2019-03-28T05:11:46.150Z,12.63
2019-03-28T05:14:18.418Z,13.00
2019-03-28T05:16:50.669Z,13.97
2019-03-28T05:19:23.565Z,13.03
2019-03-28T05:21:56.638Z,13.47
2019-03-28T05:24:29.668Z,13.53
2019-03-28T05:27:01.979Z,13.07
2019-03-28T05:29:34.272Z,14.07
2019-03-28T05:32:06.523Z,14.07
2019-03-28T05:34:38.784Z,14.03
2019-03-28T05:37:11.049Z,13.00
2019-03-28T05:39:43.310Z,14.97
2019-03-28T05:42:15.644Z,14.73
2019-03-28T05:44:47.906Z,15.37
2019-03-28T05:47:22.065Z,14.87
2019-03-28T05:49:54.411Z,14.50
2019-03-28T05:52:26.786Z,14.33
2019-03-28T05:54:59.392Z,14.20
2019-03-28T05:57:31.700Z,15.33
2019-03-28T06:00:04.915Z,14.40
2019-03-28T06:02:37.254Z,14.50
2019-03-28T06:05:09.601Z,15.33
2019-03-28T06:07:41.847Z,16.10
2019-03-28T06:10:16.415Z,14.37
2019-03-28T06:12:48.697Z,14.27
2019-03-28T06:15:21.085Z,14.43
2019-03-28T06:17:53.836Z,13.23
2019-03-28T06:20:26.631Z,14.07
2019-03-28T06:22:58.885Z,14.30
2019-03-28T06:25:31.145Z,14.63
2019-03-28T06:28:03.566Z,15.13
2019-03-28T06:30:35.824Z,16.27
2019-03-28T06:33:08.583Z,15.20
2019-03-28T06:35:41.125Z,13.73
2019-03-28T06:38:13.378Z,14.60
2019-03-28T06:40:45.649Z,14.97
2019-03-28T06:43:17.920Z,16.67
2019-03-28T06:45:50.198Z,14.87
2019-03-28T06:48:22.599Z,16.37
2019-03-28T06:50:54.884Z,15.93
2019-03-28T06:53:27.140Z,15.57
2019-03-28T06:55:59.398Z,16.27
2019-03-28T06:58:31.694Z,15.80
2019-03-28T07:01:03.977Z,15.80
2019-03-28T07:03:36.227Z,17.07
2019-03-28T07:06:08.497Z,15.87
2019-03-28T07:08:40.748Z,15.80
2019-03-28T07:11:13.004Z,17.40
2019-03-28T07:13:45.274Z,17.23
2019-03-28T07:16:17.557Z,17.80
2019-03-28T07:18:49.878Z,17.13
2019-03-28T07:21:22.221Z,19.10
2019-03-28T07:23:54.477Z,18.13
2019-03-28T07:26:26.861Z,16.20
2019-03-28T07:28:59.466Z,16.57
2019-03-28T07:31:35.271Z,17.63
2019-03-28T07:34:06.344Z,17.63
2019-03-28T07:36:38.605Z,17.53
2019-03-28T07:39:10.937Z,16.87
2019-03-28T07:41:43.200Z,17.37
2019-03-28T07:44:15.480Z,16.23
2019-03-28T07:46:47.891Z,17.90
2019-03-28T07:49:20.264Z,16.87
2019-03-28T07:51:52.671Z,16.90
2019-03-28T07:54:24.940Z,16.67
2019-03-28T07:56:57.224Z,16.30
2019-03-28T07:59:29.663Z,16.60
2019-03-28T08:02:02.015Z,16.93
2019-03-28T08:04:34.320Z,18.37
2019-03-28T08:07:06.605Z,17.67
2019-03-28T08:09:38.848Z,19.13
2019-03-28T08:12:21.779Z,18.33
2019-03-28T08:14:45.246Z,19.63
2019-03-28T08:17:17.548Z,20.13
2019-03-28T08:19:49.882Z,19.90
2019-03-28T08:22:22.167Z,20.23
2019-03-28T08:24:54.417Z,20.90
2019-03-28T08:27:26.685Z,21.20
2019-03-28T08:29:58.931Z,21.47
2019-03-28T08:32:31.804Z,21.83
2019-03-28T08:35:04.844Z,21.20
2019-03-28T08:37:37.607Z,22.03
2019-03-28T08:40:11.989Z,22.47
2019-03-28T08:42:44.261Z,21.33
2019-03-28T08:45:16.545Z,20.27
2019-03-28T08:47:48.816Z,20.83
2019-03-28T08:50:21.199Z,23.17
2019-03-28T08:52:53.473Z,21.33
2019-03-28T08:55:25.765Z,18.87
2019-03-28T08:57:58.040Z,19.13
2019-03-28T09:00:35.042Z,19.83
2019-03-28T09:03:04.760Z,20.20
2019-03-28T09:05:37.004Z,19.70
2019-03-28T09:08:09.277Z,20.20
2019-03-28T09:10:41.639Z,17.70
2019-03-28T09:13:13.913Z,19.97
2019-03-28T09:15:46.283Z,18.27
2019-03-28T09:18:18.635Z,19.17
2019-03-28T09:20:50.890Z,19.40
2019-03-28T09:23:23.291Z,19.10
2019-03-28T09:25:55.621Z,20.03
2019-03-28T09:28:27.884Z,20.47
2019-03-28T09:31:00.534Z,21.30
2019-03-28T09:33:33.106Z,19.27
2019-03-28T09:36:05.386Z,20.57
2019-03-28T09:38:37.683Z,20.47
2019-03-28T09:41:10.128Z,18.33
2019-03-28T09:43:54.549Z,17.57
2019-03-28T09:46:16.536Z,19.00
2019-03-28T09:48:48.816Z,17.33
2019-03-28T09:51:21.090Z,18.40
2019-03-28T09:53:53.343Z,17.70
2019-03-28T09:56:25.600Z,16.67
2019-03-28T09:59:00.338Z,18.20
2019-03-28T10:01:32.079Z,18.50
2019-03-28T10:04:06.400Z,19.03
2019-03-28T10:06:38.589Z,17.43
2019-03-28T10:09:10.860Z,19.13
2019-03-28T10:11:43.112Z,18.03
2019-03-28T10:14:15.378Z,16.50
2019-03-28T10:16:47.620Z,19.27
2019-03-28T10:19:19.919Z,19.03
2019-03-28T10:21:52.161Z,17.97
2019-03-28T10:24:24.421Z,18.77
2019-03-28T10:26:56.679Z,19.63
2019-03-28T10:29:28.930Z,20.43
2019-03-28T10:32:01.275Z,20.27
2019-03-28T10:34:33.637Z,18.47
2019-03-28T10:37:05.881Z,18.50
2019-03-28T10:39:38.157Z,19.37
2019-03-28T10:42:10.408Z,16.80
2019-03-28T10:44:42.665Z,18.57
2019-03-28T10:47:14.929Z,16.00
2019-03-28T10:49:47.214Z,15.70
2019-03-28T10:52:19.491Z,16.33
2019-03-28T10:54:51.849Z,15.13
2019-03-28T10:57:29.902Z,14.90
2019-03-28T10:59:58.381Z,14.90
2019-03-28T11:02:30.867Z,14.87
2019-03-28T11:05:03.736Z,14.17
2019-03-28T11:07:36.199Z,14.53
2019-03-28T11:10:08.767Z,14.10
2019-03-28T11:12:41.116Z,12.93
2019-03-28T11:15:13.585Z,13.40
2019-03-28T11:17:45.862Z,11.97
2019-03-28T11:20:18.130Z,12.93
2019-03-28T11:22:50.386Z,14.13
2019-03-28T11:25:22.653Z,12.50
2019-03-28T11:27:54.908Z,13.30
2019-03-28T11:30:27.161Z,12.13
2019-03-28T11:32:59.512Z,14.67
2019-03-28T11:35:32.619Z,11.23
2019-03-28T11:38:05.048Z,12.87
2019-03-28T11:40:38.166Z,12.63
2019-03-28T11:43:11.175Z,12.17
2019-03-28T11:45:43.537Z,12.40
2019-03-28T11:48:15.787Z,11.80
2019-03-28T11:50:48.069Z,12.93
2019-03-28T11:53:20.312Z,11.87
2019-03-28T11:55:52.591Z,11.97
2019-03-28T11:58:24.868Z,12.50
2019-03-28T12:00:57.160Z,12.23
2019-03-28T12:03:29.428Z,11.40
2019-03-28T12:06:01.695Z,11.37
2019-03-28T12:08:33.951Z,10.30
2019-03-28T12:11:06.218Z,10.93
2019-03-28T12:13:44.631Z,11.40
2019-03-28T12:16:12.652Z,11.13
2019-03-28T12:18:44.926Z,11.23
2019-03-28T12:21:18.480Z,10.23
2019-03-28T12:23:55.101Z,9.93
2019-03-28T12:26:27.408Z,10.27
2019-03-28T12:28:59.662Z,12.00
2019-03-28T12:31:33.340Z,9.80
2019-03-28T12:34:05.873Z,9.67
2019-03-28T12:36:38.162Z,9.60
2019-03-28T12:39:10.597Z,10.83
2019-03-28T12:41:42.857Z,8.57
2019-03-28T12:44:15.225Z,10.40
2019-03-28T12:46:47.535Z,10.03
2019-03-28T12:49:19.843Z,10.00
2019-03-28T12:51:52.688Z,12.47
2019-03-28T12:54:25.277Z,10.77
2019-03-28T12:56:58.260Z,9.73
2019-03-28T12:59:33.618Z,11.53
2019-03-28T13:02:04.847Z,13.27
2019-03-28T13:04:37.150Z,12.87
2019-03-28T13:07:09.525Z,12.57
2019-03-28T13:09:41.884Z,12.00
2019-03-28T13:12:14.550Z,10.47
2019-03-28T13:14:47.716Z,10.47
2019-03-28T13:17:20.173Z,11.63
2019-03-28T13:19:52.425Z,12.03
2019-03-28T13:22:24.679Z,11.07
2019-03-28T13:24:56.927Z,11.67
2019-03-28T13:27:29.197Z,11.60
2019-03-28T13:30:01.434Z,11.80
2019-03-28T13:32:41.629Z,11.40
2019-03-28T13:35:08.400Z,11.70
2019-03-28T13:37:40.768Z,13.43
2019-03-28T13:40:13.225Z,14.40
2019-03-28T13:42:45.482Z,15.20
2019-03-28T13:45:18.037Z,13.00
2019-03-28T13:47:53.819Z,12.53
2019-03-28T13:50:24.720Z,14.03
2019-03-28T13:52:57.061Z,14.70
2019-03-28T13:55:29.411Z,17.07
2019-03-28T13:58:01.703Z,17.47
2019-03-28T14:00:34.167Z,17.83
2019-03-28T14:03:06.497Z,17.00
2019-03-28T14:05:38.837Z,17.80
2019-03-28T14:08:11.113Z,17.87
2019-03-28T14:10:43.568Z,17.97
2019-03-28T14:13:15.922Z,17.80
2019-03-28T14:15:48.176Z,17.60
2019-03-28T14:18:20.445Z,18.63
2019-03-28T14:20:52.697Z,20.87
2019-03-28T14:23:25.085Z,18.93
2019-03-28T14:25:57.336Z,18.37
2019-03-28T14:28:29.605Z,17.73
2019-03-28T14:31:01.865Z,16.87
2019-03-28T14:33:34.131Z,16.50
2019-03-28T14:36:06.482Z,16.57
2019-03-28T14:38:38.854Z,15.53
2019-03-28T14:41:11.125Z,18.47
2019-03-28T14:43:43.391Z,16.57
2019-03-28T14:46:15.762Z,16.67
2019-03-28T14:48:48.212Z,16.90
2019-03-28T14:51:20.587Z,18.37
2019-03-28T14:53:52.992Z,17.83
2019-03-28T14:56:26.161Z,25.87
2019-03-28T14:58:59.818Z,22.27
2019-03-28T15:01:32.168Z,22.70
2019-03-28T15:04:04.532Z,18.33
2019-03-28T15:06:36.800Z,20.30
2019-03-28T15:09:09.865Z,16.53
2019-03-28T15:11:42.477Z,14.23
2019-03-28T15:14:14.741Z,17.80
2019-03-28T15:16:46.977Z,15.47
2019-03-28T15:19:19.232Z,16.03
2019-03-28T15:21:51.488Z,16.43
2019-03-28T15:24:23.755Z,18.87
2019-03-28T15:26:56.085Z,17.17
2019-03-28T15:29:28.343Z,18.23
2019-03-28T15:32:00.713Z,19.47
2019-03-28T15:34:32.977Z,18.77
2019-03-28T15:37:05.321Z,19.27
2019-03-28T15:39:37.604Z,17.50
2019-03-28T15:42:10.064Z,19.50
2019-03-28T15:44:42.425Z,19.47
2019-03-28T15:47:14.778Z,18.50
2019-03-28T15:49:47.070Z,18.87
2019-03-28T15:52:19.333Z,17.17
2019-03-28T15:54:51.601Z,18.37
2019-03-28T15:57:24.790Z,19.63
2019-03-28T15:59:57.154Z,17.17
2019-03-28T16:02:29.507Z,19.37
2019-03-28T16:05:01.782Z,19.23
2019-03-28T16:07:34.037Z,25.70
2019-03-28T16:10:08.206Z,29.27
2019-03-28T16:12:40.552Z,23.90
2019-03-28T16:15:13.824Z,27.30
2019-03-28T16:17:46.080Z,46.07
2019-03-28T16:20:18.367Z,35.77
2019-03-28T16:22:50.699Z,23.57
2019-03-28T16:25:22.962Z,21.00
2019-03-28T16:27:55.204Z,22.43
2019-03-28T16:30:35.478Z,26.43
2019-03-28T16:33:07.860Z,21.73
2019-03-28T16:35:40.125Z,20.53
2019-03-28T16:38:12.383Z,18.37
2019-03-28T16:40:44.734Z,18.37
2019-03-28T16:43:16.986Z,17.13
2019-03-28T16:45:49.254Z,19.00
2019-03-28T16:48:21.555Z,19.10
2019-03-28T16:50:53.936Z,17.70
2019-03-28T16:53:26.165Z,17.37
2019-03-28T16:55:58.456Z,15.87
2019-03-28T16:58:30.688Z,18.40
2019-03-28T17:01:03.080Z,18.20
2019-03-28T17:03:35.456Z,18.10
2019-03-28T17:06:08.030Z,54.93
2019-03-28T17:08:43.576Z,53.93
2019-03-28T17:11:15.950Z,43.03
2019-03-28T17:13:48.308Z,49.03
2019-03-28T17:16:20.658Z,30.33
2019-03-28T17:18:52.910Z,27.43
2019-03-28T17:21:25.179Z,22.17
2019-03-28T17:23:57.432Z,19.80
2019-03-28T17:26:29.793Z,18.97
2019-03-28T17:29:02.050Z,18.63
2019-03-28T17:31:34.396Z,18.97
2019-03-28T17:34:06.677Z,16.87
2019-03-28T17:36:38.921Z,14.27
2019-03-28T17:39:11.177Z,14.27
2019-03-28T17:41:43.426Z,13.17
2019-03-28T17:44:15.695Z,12.83
2019-03-28T17:46:47.987Z,13.67
2019-03-28T17:49:20.318Z,14.53
2019-03-28T17:51:52.602Z,13.63
2019-03-28T17:54:24.844Z,13.07
2019-03-28T17:56:57.104Z,14.20
2019-03-28T17:59:29.405Z,14.60
2019-03-28T18:02:01.881Z,13.43
2019-03-28T18:04:47.212Z,14.47
2019-03-28T18:07:08.708Z,14.53
2019-03-28T18:09:41.001Z,15.33
2019-03-28T18:12:13.855Z,14.50
2019-03-28T18:14:46.441Z,14.63
2019-03-28T18:17:18.821Z,13.57
2019-03-28T18:19:51.080Z,14.07
2019-03-28T18:22:23.356Z,15.80
2019-03-28T18:24:55.704Z,14.63
2019-03-28T18:27:27.986Z,14.90
2019-03-28T18:30:00.278Z,14.97
2019-03-28T18:32:32.612Z,14.87
2019-03-28T18:35:07.068Z,14.50
2019-03-28T18:37:39.588Z,14.40
2019-03-28T18:40:12.036Z,15.30
2019-03-28T18:42:44.312Z,16.03
2019-03-28T18:45:16.873Z,15.73
2019-03-28T18:47:49.158Z,15.03
2019-03-28T18:50:21.545Z,14.87
2019-03-28T18:52:53.929Z,14.60
2019-03-28T18:55:26.276Z,16.10
2019-03-28T18:57:58.599Z,17.83
2019-03-28T19:00:31.049Z,16.33
2019-03-28T19:03:03.412Z,16.43
2019-03-28T19:05:35.686Z,16.10
2019-03-28T19:08:07.985Z,16.53
2019-03-28T19:10:40.340Z,17.17
2019-03-28T19:13:13.856Z,16.57
2019-03-28T19:15:46.420Z,15.30
2019-03-28T19:18:18.720Z,18.83
2019-03-28T19:20:51.219Z,17.20
2019-03-28T19:23:24.844Z,16.70
2019-03-28T19:25:57.385Z,18.47
2019-03-28T19:28:29.780Z,18.67
2019-03-28T19:31:02.136Z,15.63
2019-03-28T19:33:34.433Z,14.70
2019-03-28T19:36:06.913Z,16.07
2019-03-28T19:38:39.543Z,17.63
2019-03-28T19:41:11.862Z,17.07
2019-03-28T19:43:44.723Z,17.77
2019-03-28T19:46:16.990Z,17.17
2019-03-28T19:48:49.287Z,16.33
2019-03-28T19:51:21.692Z,17.53
2019-03-28T19:53:54.195Z,16.43
2019-03-28T19:56:26.494Z,17.23
2019-03-28T19:58:59.357Z,16.63
2019-03-28T20:01:32.077Z,16.47
2019-03-28T20:04:04.385Z,22.17
2019-03-28T20:06:36.647Z,17.27
2019-03-28T20:09:16.192Z,18.73
2019-03-28T20:11:43.260Z,19.77
2019-03-28T20:14:15.873Z,19.60
2019-03-28T20:16:48.480Z,21.10
2019-03-28T20:19:20.841Z,19.23
2019-03-28T20:21:53.271Z,20.87
2019-03-28T20:24:25.574Z,19.00
2019-03-28T20:26:58.045Z,20.87
2019-03-28T20:29:33.272Z,20.20
2019-03-28T20:32:04.492Z,19.50
2019-03-28T20:34:36.798Z,19.00
2019-03-28T20:37:09.213Z,22.20
2019-03-28T20:39:41.500Z,18.90
2019-03-28T20:42:13.775Z,18.70
2019-03-28T20:44:46.055Z,18.97
2019-03-28T20:47:18.325Z,20.57
2019-03-28T20:49:50.710Z,20.63
2019-03-28T20:52:23.081Z,20.17
2019-03-28T20:54:55.353Z,18.90
2019-03-28T20:57:27.610Z,20.77
2019-03-28T20:59:59.978Z,21.23
2019-03-28T21:02:32.263Z,21.50
2019-03-28T21:05:04.829Z,19.73
2019-03-28T21:07:37.096Z,20.57
2019-03-28T21:10:22.441Z,22.30
2019-03-28T21:12:54.675Z,21.47
2019-03-28T21:15:26.959Z,21.53
2019-03-28T21:17:59.228Z,21.83
2019-03-28T21:20:31.580Z,22.17
2019-03-28T21:23:05.342Z,21.77
2019-03-28T21:25:37.854Z,21.47
2019-03-28T21:28:13.529Z,24.17
2019-03-28T21:30:47.729Z,24.23
2019-03-28T21:33:18.560Z,24.83
2019-03-28T21:35:50.837Z,25.17
2019-03-28T21:38:23.092Z,26.63
2019-03-28T21:40:55.350Z,29.47
2019-03-28T21:43:27.613Z,24.87
2019-03-28T21:46:00.002Z,27.87
2019-03-28T21:48:32.337Z,28.00
2019-03-28T21:51:04.620Z,29.27
2019-03-28T21:53:36.879Z,25.70
2019-03-28T21:56:09.255Z,26.33
2019-03-28T21:58:41.526Z,28.77
2019-03-28T22:01:13.796Z,30.97
2019-03-28T22:03:46.056Z,30.10
2019-03-28T22:06:18.413Z,28.33
2019-03-28T22:08:50.657Z,29.77
2019-03-28T22:11:22.921Z,28.90
2019-03-28T22:13:55.283Z,29.93
2019-03-28T22:16:27.549Z,30.30
2019-03-28T22:18:59.935Z,30.03
2019-03-28T22:21:32.486Z,32.17
2019-03-28T22:24:04.745Z,33.90
2019-03-28T22:26:37.080Z,33.77
2019-03-28T22:29:09.312Z,32.40
2019-03-28T22:31:41.573Z,33.73
2019-03-28T22:34:13.811Z,34.87
2019-03-28T22:36:56.440Z,34.97
2019-03-28T22:39:20.202Z,33.37
2019-03-28T22:41:52.479Z,34.60
2019-03-28T22:44:24.955Z,33.57
2019-03-28T22:46:57.580Z,33.97
2019-03-28T22:49:29.828Z,32.43
2019-03-28T22:52:02.194Z,35.60
2019-03-28T22:54:34.464Z,33.70
2019-03-28T22:57:06.736Z,34.07
2019-03-28T22:59:38.972Z,36.33
2019-03-28T23:02:11.346Z,33.10
2019-03-28T23:04:43.696Z,35.63
2019-03-28T23:07:15.987Z,35.73
2019-03-28T23:09:48.293Z,33.63
2019-03-28T23:12:20.548Z,36.73
2019-03-28T23:14:52.808Z,34.20
2019-03-28T23:17:25.077Z,35.73
2019-03-28T23:19:57.900Z,35.37
2019-03-28T23:22:30.331Z,34.47
2019-03-28T23:25:03.251Z,34.33
2019-03-28T23:27:35.538Z,33.57
2019-03-28T23:30:08.810Z,33.10
2019-03-28T23:32:41.317Z,33.60
2019-03-28T23:35:14.751Z,37.97
2019-03-28T23:37:47.262Z,36.03
2019-03-28T23:40:19.601Z,35.87
2019-03-28T23:42:51.869Z,39.03
2019-03-28T23:45:24.123Z,36.30
2019-03-28T23:47:56.399Z,35.43
2019-03-28T23:50:28.752Z,37.07
2019-03-28T23:53:01.100Z,38.07
2019-03-28T23:55:33.365Z,35.13
2019-03-28T23:58:05.712Z,38.17
